Time;durP1;ratioP1;P1;durP2;ratioP2;P2;SDS_P1;SDS_P2;PMS_P1;PMS_P2;Temp;Humidity;BMP_temperature;BMP_pressure;BME280_temperature;BME280_humidity;BME280_pressure;Samples;Min_cycle;Max_cycle;Signal;HPM_P1;HPM_P2
2021/08/26 00:07:20;;;;;;;;;;;;;;;;;;6149640;22;105113;-78
2021/08/26 00:10:08;;;;;;;;;;;;;;;;;;6234629;22;105350;-78
2021/08/26 00:12:54;;;;;;;;;;;;;;;;;;6236514;22;105749;-78
2021/08/26 00:15:40;;;;;;;;;;;;;;;;;;6236735;22;105138;-78
2021/08/26 00:18:26;;;;;;;;;;;;;;;;;;6237243;22;105260;-78
2021/08/26 00:21:12;;;;;;;;;;;;;;;;;;6236385;22;105326;-78
2021/08/26 00:23:58;;;;;;;;;;;;;;;;;;6236337;22;105810;-78
2021/08/26 00:26:43;;;;;;;;;;;;;;;;;;6257064;22;105243;-78
2021/08/26 00:29:28;;;;;;;;;;;;;;;;;;6236669;22;105197;-78
2021/08/26 00:32:14;;;;;;;;;;;;;;;;;;6236684;22;105389;-78
2021/08/26 00:34:59;;;;;;;;;;;;;;;;;;6236028;22;105851;-78
2021/08/26 00:37:44;;;;;;;;;;;;;;;;;;6236570;22;105477;-78
2021/08/26 00:40:29;;;;;;;;;;;;;;;;;;6236462;22;105148;-78
2021/08/26 00:43:15;;;;;;;;;;;;;;;;;;6236311;22;105441;-78
2021/08/26 00:46:00;;;;;;;;;;;;;;;;;;6236538;22;105222;-78
2021/08/26 00:48:49;;;;;;;;;;;;;;;;;;6236575;22;105204;-78
2021/08/26 00:51:34;;;;;;;;;;;;;;;;;;6234380;22;105153;-78
2021/08/26 00:54:19;;;;;;;;;;;;;;;;;;6236917;22;105100;-78
2021/08/26 00:57:05;;;;;;;;;;;;;;;;;;6236977;22;105785;-78
2021/08/26 00:59:52;;;;;;;;;;;;;;;;;;6235783;22;105145;-78
2021/08/26 01:03:03;;;;;;;;;;;;;;;;;;6236407;22;105190;-78
2021/08/26 01:05:52;;;;;;;;;;;;;;;;;;6236230;22;105122;-78
2021/08/26 01:08:40;;;;;;;;;;;;;;;;;;6236557;22;105201;-78
2021/08/26 01:11:26;;;;;;;;;;;;;;;;;;6236562;22;105409;-78
2021/08/26 01:14:11;;;;;;;;;;;;;;;;;;6236507;22;105216;-78
2021/08/26 01:16:57;;;;;;;;;;;;;;;;;;6236616;22;105086;-78
2021/08/26 01:19:42;;;;;;;;;;;;;;;;;;6235514;22;105791;-79
2021/08/26 01:22:28;;;;;;;;;;;;;;;;;;6236323;22;104990;-78
2021/08/26 01:25:16;;;;;;;;;;;;;;;;;;6235940;22;105102;-78
2021/08/26 01:28:04;;;;;;;;;;;;;;;;;;6235963;22;105270;-78
2021/08/26 01:30:50;;;;;;;;;;;;;;;;;;6235925;22;105740;-78
2021/08/26 01:33:35;;;;;;;;;;;;;;;;;;6236042;22;105274;-78
2021/08/26 01:36:24;;;;;;;;;;;;;;;;;;6236155;22;105087;-78
2021/08/26 01:39:11;;;;;;;;;;;;;;;;;;6236148;22;105201;-78
2021/08/26 01:41:59;;;;;;;;;;;;;;;;;;6235639;22;105287;-78
2021/08/26 01:44:45;;;;;;;;;;;;;;;;;;6236383;22;105216;-79
2021/08/26 01:47:30;;;;;;;;;;;;;;;;;;6235862;22;105551;-78
2021/08/26 01:50:15;;;;;;;;;;;;;;;;;;6235392;22;105584;-78
2021/08/26 01:53:01;;;;;;;;;;;;;;;;;;6234003;22;105356;-78
2021/08/26 01:55:46;;;;;;;;;;;;;;;;;;6236032;22;105263;-78
2021/08/26 01:58:31;;;;;;;;;;;;;;;;;;6236671;22;105079;-78
2021/08/26 02:01:17;;;;;;;;;;;;;;;;;;6235652;22;105219;-78
2021/08/26 02:04:03;;;;;;;;;;;;;;;;;;6236191;22;105790;-78
2021/08/26 02:06:48;;;;;;;;;;;;;;;;;;6233980;22;105428;-78
2021/08/26 02:09:33;;;;;;;;;;;;;;;;;;6235046;22;105217;-78
2021/08/26 02:12:19;;;;;;;;;;;;;;;;;;6238020;22;105179;-78
2021/08/26 02:15:05;;;;;;;;;;;;;;;;;;6238136;22;105891;-78
2021/08/26 02:17:50;;;;;;;;;;;;;;;;;;6236111;22;105149;-78
2021/08/26 02:20:36;;;;;;;;;;;;;;;;;;6236947;22;105111;-78
2021/08/26 02:23:21;;;;;;;;;;;;;;;;;;6237474;22;105197;-78
2021/08/26 02:26:07;;;;;;;;;;;;;;;;;;6237797;22;105825;-78
2021/08/26 02:28:52;;;;;;;;;;;;;;;;;;6237899;22;105343;-78
2021/08/26 02:31:38;;;;;;;;;;;;;;;;;;6236406;22;105679;-78
2021/08/26 02:34:23;;;;;;;;;;;;;;;;;;6237813;22;105170;-78
2021/08/26 02:37:08;;;;;;;;;;;;;;;;;;6236945;22;105788;-78
2021/08/26 02:39:54;;;;;;;;;;;;;;;;;;6238081;22;105257;-78
2021/08/26 02:42:39;;;;;;;;;;;;;;;;;;6237809;22;105508;-78
2021/08/26 02:45:25;;;;;;;;;;;;;;;;;;6236813;22;105202;-78
2021/08/26 02:48:10;;;;;;;;;;;;;;;;;;6238178;22;105779;-78
2021/08/26 02:50:59;;;;;;;;;;;;;;;;;;6237299;22;105235;-78
2021/08/26 02:53:44;;;;;;;;;;;;;;;;;;6237518;22;105196;-78
2021/08/26 02:56:29;;;;;;;;;;;;;;;;;;6235698;22;105213;-78
2021/08/26 02:59:14;;;;;;;;;;;;;;;;;;6237448;22;105815;-77
2021/08/26 03:02:00;;;;;;;;;;;;;;;;;;6237265;22;105357;-78
2021/08/26 03:04:46;;;;;;;;;;;;;;;;;;6236871;22;105150;-78
2021/08/26 03:07:31;;;;;;;;;;;;;;;;;;6236177;22;105265;-78
2021/08/26 03:10:16;;;;;;;;;;;;;;;;;;6237273;22;105837;-77
2021/08/26 03:13:02;;;;;;;;;;;;;;;;;;6237306;22;105725;-78
2021/08/26 03:15:48;;;;;;;;;;;;;;;;;;6237682;22;105256;-78
2021/08/26 03:18:33;;;;;;;;;;;;;;;;;;6236657;22;105220;-78
2021/08/26 03:21:18;;;;;;;;;;;;;;;;;;6236484;22;105902;-78
2021/08/26 03:24:04;;;;;;;;;;;;;;;;;;6236834;22;105212;-78
2021/08/26 03:26:50;;;;;;;;;;;;;;;;;;6236953;22;105227;-78
2021/08/26 03:29:35;;;;;;;;;;;;;;;;;;6235594;22;105242;-78
2021/08/26 03:32:21;;;;;;;;;;;;;;;;;;6236614;22;105780;-78
2021/08/26 03:35:06;;;;;;;;;;;;;;;;;;6237104;22;105437;-78
2021/08/26 03:37:52;;;;;;;;;;;;;;;;;;6236782;22;105740;-78
2021/08/26 03:40:37;;;;;;;;;;;;;;;;;;6236783;22;105244;-78
2021/08/26 03:43:22;;;;;;;;;;;;;;;;;;6236846;22;105795;-78
2021/08/26 03:46:08;;;;;;;;;;;;;;;;;;6237505;22;105078;-78
2021/08/26 03:48:55;;;;;;;;;;;;;;;;;;6236673;22;105576;-78
2021/08/26 03:51:40;;;;;;;;;;;;;;;;;;6236723;22;105156;-78
2021/08/26 03:54:26;;;;;;;;;;;;;;;;;;6236670;22;105760;-78
2021/08/26 03:57:11;;;;;;;;;;;;;;;;;;6236461;22;105175;-78
2021/08/26 03:59:57;;;;;;;;;;;;;;;;;;6236645;22;105241;-78
2021/08/26 04:02:42;;;;;;;;;;;;;;;;;;6235836;22;105693;-78
2021/08/26 04:05:28;;;;;;;;;;;;;;;;;;6237056;22;105839;-79
2021/08/26 04:08:13;;;;;;;;;;;;;;;;;;6236971;22;106609;-79
2021/08/26 04:11:01;;;;;;;;;;;;;;;;;;6236399;22;105330;-79
2021/08/26 04:13:48;;;;;;;;;;;;;;;;;;6236767;22;105235;-78
2021/08/26 04:16:33;;;;;;;;;;;;;;;;;;6236426;22;105788;-79
2021/08/26 04:19:18;;;;;;;;;;;;;;;;;;6236895;22;105090;-79
2021/08/26 04:22:03;;;;;;;;;;;;;;;;;;6236143;22;105278;-79
2021/08/26 04:24:49;;;;;;;;;;;;;;;;;;6237098;22;105247;-78
2021/08/26 04:27:34;;;;;;;;;;;;;;;;;;6236457;22;105791;-78
2021/08/26 04:30:20;;;;;;;;;;;;;;;;;;6236556;22;105131;-78
2021/08/26 04:33:05;;;;;;;;;;;;;;;;;;6236282;22;105091;-78
2021/08/26 04:35:53;;;;;;;;;;;;;;;;;;6235545;22;105295;-78
2021/08/26 04:38:39;;;;;;;;;;;;;;;;;;6236303;22;105834;-78
2021/08/26 04:41:24;;;;;;;;;;;;;;;;;;6236779;22;105161;-78
2021/08/26 04:44:12;;;;;;;;;;;;;;;;;;6236548;22;105218;-78
2021/08/26 04:46:58;;;;;;;;;;;;;;;;;;6236917;22;105218;-78
2021/08/26 04:49:44;;;;;;;;;;;;;;;;;;6235972;22;105788;-79
2021/08/26 04:52:29;;;;;;;;;;;;;;;;;;6236657;22;105347;-78
2021/08/26 04:55:15;;;;;;;;;;;;;;;;;;6236694;22;105602;-78
2021/08/26 04:58:00;;;;;;;;;;;;;;;;;;6236045;22;105405;-78
2021/08/26 05:00:48;;;;;;;;;;;;;;;;;;6234037;22;105808;-78
2021/08/26 05:03:33;;;;;;;;;;;;;;;;;;6236267;22;105233;-79
2021/08/26 05:06:19;;;;;;;;;;;;;;;;;;6236105;22;105718;-78
2021/08/26 05:09:04;;;;;;;;;;;;;;;;;;6236763;22;105566;-78
2021/08/26 05:11:53;;;;;;;;;;;;;;;;;;6235697;22;105775;-78
2021/08/26 05:14:39;;;;;;;;;;;;;;;;;;6234863;22;105185;-78
2021/08/26 05:17:24;;;;;;;;;;;;;;;;;;6236631;22;105176;-78
2021/08/26 05:20:10;;;;;;;;;;;;;;;;;;6236198;22;106085;-78
2021/08/26 05:22:57;;;;;;;;;;;;;;;;;;6235529;22;105962;-78
2021/08/26 05:25:42;;;;;;;;;;;;;;;;;;6236132;22;105183;-79
2021/08/26 05:28:28;;;;;;;;;;;;;;;;;;6235901;22;105283;-78
2021/08/26 05:31:14;;;;;;;;;;;;;;;;;;6236034;22;105226;-78
2021/08/26 05:33:59;;;;;;;;;;;;;;;;;;6235888;22;105820;-79
2021/08/26 05:36:44;;;;;;;;;;;;;;;;;;6236201;22;105334;-78
2021/08/26 05:39:30;;;;;;;;;;;;;;;;;;6236104;22;105256;-78
2021/08/26 05:42:15;;;;;;;;;;;;;;;;;;6235868;22;105162;-78
2021/08/26 05:45:01;;;;;;;;;;;;;;;;;;6235890;22;105802;-78
2021/08/26 05:47:48;;;;;;;;;;;;;;;;;;6237781;22;105314;-78
2021/08/26 05:50:33;;;;;;;;;;;;;;;;;;6237805;22;105082;-78
2021/08/26 05:53:19;;;;;;;;;;;;;;;;;;6237483;22;105563;-78
2021/08/26 05:56:04;;;;;;;;;;;;;;;;;;6238078;22;105795;-78
2021/08/26 05:58:57;;;;;;;;;;;;;;;;;;6238446;22;105110;-79
2021/08/26 06:01:43;;;;;;;;;;;;;;;;;;6237670;22;105141;-79
2021/08/26 06:04:29;;;;;;;;;;;;;;;;;;6237991;22;105159;-78
2021/08/26 06:07:14;;;;;;;;;;;;;;;;;;6237101;22;105815;-79
2021/08/26 06:10:00;;;;;;;;;;;;;;;;;;6237997;22;104958;-79
2021/08/26 06:12:45;;;;;;;;;;;;;;;;;;6237642;22;105226;-78
2021/08/26 06:15:31;;;;;;;;;;;;;;;;;;6237590;22;105105;-78
2021/08/26 06:18:21;;;;;;;;;;;;;;;;;;6236271;22;105709;-78
2021/08/26 06:21:08;;;;;;;;;;;;;;;;;;6235764;22;105287;-78
2021/08/26 06:23:54;;;;;;;;;;;;;;;;;;6237999;22;105407;-79
2021/08/26 06:26:39;;;;;;;;;;;;;;;;;;6238139;22;105182;-79
2021/08/26 06:29:25;;;;;;;;;;;;;;;;;;6237516;22;105791;-79
2021/08/26 06:32:10;;;;;;;;;;;;;;;;;;6237898;22;105148;-83
2021/08/26 06:34:58;;;;;;;;;;;;;;;;;;6237581;22;105106;-78
2021/08/26 06:37:43;;;;;;;;;;;;;;;;;;6237539;22;105199;-79
2021/08/26 06:40:28;;;;;;;;;;;;;;;;;;6237681;22;105912;-84
2021/08/26 06:43:14;;;;;;;;;;;;;;;;;;6235900;22;105268;-78
2021/08/26 06:45:59;;;;;;;;;;;;;;;;;;6237682;22;105161;-78
2021/08/26 06:48:45;;;;;;;;;;;;;;;;;;6237184;22;105434;-79
2021/08/26 06:51:30;;;;;;;;;;;;;;;;;;6237563;22;105301;-78
2021/08/26 06:54:16;;;;;;;;;;;;;;;;;;6237256;22;105343;-78
2021/08/26 06:57:01;;;;;;;;;;;;;;;;;;6237351;22;105271;-78
2021/08/26 06:59:46;;;;;;;;;;;;;;;;;;6237881;22;105696;-78
2021/08/26 07:02:32;;;;;;;;;;;;;;;;;;6237470;22;105783;-79
2021/08/26 07:05:18;;;;;;;;;;;;;;;;;;6237553;22;105224;-78
2021/08/26 07:08:04;;;;;;;;;;;;;;;;;;6237660;22;105442;-79
2021/08/26 07:10:49;;;;;;;;;;;;;;;;;;6237401;22;105225;-78
2021/08/26 07:13:35;;;;;;;;;;;;;;;;;;6237245;22;105779;-79
2021/08/26 07:16:21;;;;;;;;;;;;;;;;;;6237223;22;105075;-78
2021/08/26 07:19:07;;;;;;;;;;;;;;;;;;6237448;22;105354;-78
2021/08/26 07:21:53;;;;;;;;;;;;;;;;;;6236683;22;105191;-77
2021/08/26 07:24:38;;;;;;;;;;;;;;;;;;6236541;22;105799;-78
2021/08/26 07:27:23;;;;;;;;;;;;;;;;;;6237213;22;105756;-78
2021/08/26 07:30:09;;;;;;;;;;;;;;;;;;6236442;22;105275;-79
2021/08/26 07:32:54;;;;;;;;;;;;;;;;;;6237106;22;105308;-78
2021/08/26 07:35:40;;;;;;;;;;;;;;;;;;6237150;22;105831;-77
2021/08/26 07:38:25;;;;;;;;;;;;;;;;;;6236740;22;105256;-77
2021/08/26 07:41:10;;;;;;;;;;;;;;;;;;6237059;22;105144;-77
2021/08/26 07:43:59;;;;;;;;;;;;;;;;;;6236639;22;105507;-76
2021/08/26 07:46:44;;;;;;;;;;;;;;;;;;6236883;22;105176;-78
2021/08/26 07:49:48;;;;;;;;;;;;;;;;;;6235123;22;105201;-78
2021/08/26 07:52:34;;;;;;;;;;;;;;;;;;6176247;22;105689;-78
2021/08/26 07:55:19;;;;;;;;;;;;;;;;;;6138315;22;105159;-77
2021/08/26 07:58:19;;;;;;;;;;;;;;;;;;6127417;22;105838;-77
2021/08/26 08:01:13;;;;;;;;;;;;;;;;;;6143555;22;105442;-77
2021/08/26 08:04:08;;;;;;;;;;;;;;;;;;6163917;22;105294;-78
2021/08/26 08:07:03;;;;;;;;;;;;;;;;;;6165127;22;105289;-83
2021/08/26 08:10:17;;;;;;;;;;;;;;;;;;6143739;22;105492;-84
2021/08/26 08:13:33;;;;;;;;;;;;;;;;;;6143384;22;105568;-83
2021/08/26 08:16:24;;;;;;;;;;;;;;;;;;6117803;22;105277;-82
2021/08/26 08:19:26;;;;;;;;;;;;;;;;;;6102594;23;105400;-83
2021/08/26 08:22:25;;;;;;;;;;;;;;;;;;6099322;23;105815;-81
2021/08/26 08:25:29;;;;;;;;;;;;;;;;;;6100548;23;105268;-86
2021/08/26 08:32:00;;;;;;;;;;;;;;;;;;6085599;23;105206;-80
2021/08/26 08:38:07;;;;;;;;;;;;;;;;;;6084893;23;105428;-82
2021/08/26 08:41:03;;;;;;;;;;;;;;;;;;6122880;22;105304;-80
2021/08/26 08:43:52;;;;;;;;;;;;;;;;;;6164915;22;105223;-82
2021/08/26 08:47:13;;;;;;;;;;;;;;;;;;6164453;22;105896;-83
2021/08/26 08:50:01;;;;;;;;;;;;;;;;;;6136485;22;107593;-82
2021/08/26 08:52:47;;;;;;;;;;;;;;;;;;6144731;22;105684;-86
2021/08/26 08:55:47;;;;;;;;;;;;;;;;;;6143952;22;105299;-85
2021/08/26 08:58:43;;;;;;;;;;;;;;;;;;6145116;22;105805;-80
2021/08/26 09:01:31;;;;;;;;;;;;;;;;;;6144880;22;105197;-78
2021/08/26 09:04:21;;;;;;;;;;;;;;;;;;6162330;22;105699;-87
2021/08/26 09:19:34;;;;;;;;;;;;;;;;;;6170204;22;105801;-83
2021/08/26 09:23:12;;;;;;;;;;;;;;;;;;6140472;22;105630;-81
2021/08/26 09:26:18;;;;;;;;;;;;;;;;;;6165064;22;105469;-89
2021/08/26 09:32:33;;;;;;;;;;;;;;;;;;6145511;22;105086;-78
2021/08/26 09:38:02;;;;;;;;;;;;;;;;;;7347871;19;140582;-84
2021/08/26 09:40:32;;;;;;;;;;;;;;;;;;7342242;19;140610;-83
2021/08/26 09:43:05;;;;;;;;;;;;;;;;;;7337179;19;170177;-79
2021/08/26 09:48:15;;;;;;;;;;;;;;;;;;7341626;19;140605;-82
2021/08/26 09:50:52;;;;;;;;;;;;;;;;;;7340624;19;161302;-93
2021/08/26 09:53:21;;;;;;;;;;;;;;;;;;7339909;19;170961;-77
2021/08/26 09:56:04;;;;;;;;;;;;;;;;;;7341823;19;169430;-79
2021/08/26 10:02:01;;;;;;;;;;;;;;;;;;7343256;19;140640;-85
2021/08/26 10:04:28;;;;;;;;;;;;;;;;;;7338157;19;156575;-78
2021/08/26 10:10:06;;;;;;;;;;;;;;;;;;7340166;19;140958;-84
2021/08/26 10:12:33;;;;;;;;;;;;;;;;;;7340811;19;163395;-86
2021/08/26 10:15:32;;;;;;;;;;;;;;;;;;7339972;19;143233;-81
2021/08/26 10:18:40;;;;;;;;;;;;;;;;;;7340512;19;141932;-80
2021/08/26 10:21:19;;;;;;;;;;;;;;;;;;7340392;19;150634;-78
2021/08/26 10:23:46;;;;;;;;;;;;;;;;;;7339688;19;146068;-78
2021/08/26 10:26:15;;;;;;;;;;;;;;;;;;7338142;19;170842;-78
2021/08/26 10:28:45;;;;;;;;;;;;;;;;;;7338164;19;170807;-78
2021/08/26 10:31:54;;;;;;;;;;;;;;;;;;7339921;19;163726;-76
2021/08/26 10:34:33;;;;;;;;;;;;;;;;;;7335426;19;140622;-74
2021/08/26 10:37:01;;;;;;;;;;;;;;;;;;7333818;19;170769;-75
2021/08/26 10:42:20;;;;;;;;;;;;;;;;;;7333744;19;140952;-76
2021/08/26 10:45:39;;;;;;;;;;;;;;;;;;7332954;19;163830;-76
2021/08/26 10:48:05;;;;;;;;;;;;;;;;;;7312040;19;162425;-76
2021/08/26 10:53:28;;;;;;;;;;;;;;;;;;7300757;19;164346;-75
2021/08/26 10:55:56;;;;;;;;;;;;;;;;;;7306008;19;154013;-76
2021/08/26 10:58:23;;;;;;;;;;;;;;;;;;7307018;19;170589;-75
2021/08/26 11:00:53;;;;;;;;;;;;;;;;;;7307557;19;142981;-75
2021/08/26 11:03:36;;;;;;;;;;;;;;;;;;7308200;19;163963;-76
2021/08/26 11:06:18;;;;;;;;;;;;;;;;;;7307646;19;144170;-76
2021/08/26 11:08:56;;;;;;;;;;;;;;;;;;7305237;19;170500;-75
2021/08/26 11:11:29;;;;;;;;;;;;;;;;;;7305946;19;170251;-76
2021/08/26 11:14:02;;;;;;;;;;;;;;;;;;7306527;19;164078;-75
2021/08/26 11:16:29;;;;;;;;;;;;;;;;;;7304821;19;163523;-76
2021/08/26 11:19:05;;;;;;;;;;;;;;;;;;7307254;19;170012;-76
2021/08/26 11:21:47;;;;;;;;;;;;;;;;;;7305191;19;140984;-76
2021/08/26 11:24:19;;;;;;;;;;;;;;;;;;7306567;19;155189;-76
2021/08/26 11:27:06;;;;;;;;;;;;;;;;;;7308382;19;140563;-76
2021/08/26 11:29:33;;;;;;;;;;;;;;;;;;7306435;19;168879;-76
2021/08/26 11:32:07;;;;;;;;;;;;;;;;;;7305668;19;171382;-76
2021/08/26 11:34:34;;;;;;;;;;;;;;;;;;7304996;19;163445;-76
2021/08/26 11:37:04;;;;;;;;;;;;;;;;;;7306917;19;149752;-76
2021/08/26 11:39:43;;;;;;;;;;;;;;;;;;7305889;19;161890;-76
2021/08/26 11:42:11;;;;;;;;;;;;;;;;;;7307939;19;142120;-77
2021/08/26 11:44:56;;;;;;;;;;;;;;;;;;7303935;19;164149;-77
2021/08/26 11:47:30;;;;;;;;;;;;;;;;;;7306174;19;162767;-77
2021/08/26 11:50:07;;;;;;;;;;;;;;;;;;7306963;19;169840;-77
2021/08/26 11:52:47;;;;;;;;;;;;;;;;;;7307879;19;140771;-77
2021/08/26 11:55:31;;;;;;;;;;;;;;;;;;7306078;19;163235;-76
2021/08/26 11:58:02;;;;;;;;;;;;;;;;;;7306342;19;152642;-77
2021/08/26 12:00:30;;;;;;;;;;;;;;;;;;7306681;19;169008;-77
2021/08/26 12:03:04;;;;;;;;;;;;;;;;;;7306724;19;171096;-76
2021/08/26 12:05:32;;;;;;;;;;;;;;;;;;7306402;19;164848;-77
2021/08/26 12:08:03;;;;;;;;;;;;;;;;;;7308586;19;140379;-77
2021/08/26 12:10:32;;;;;;;;;;;;;;;;;;7305416;19;169997;-77
2021/08/26 12:13:00;;;;;;;;;;;;;;;;;;7308056;19;140922;-77
2021/08/26 12:15:30;;;;;;;;;;;;;;;;;;7305179;19;163766;-77
2021/08/26 12:18:02;;;;;;;;;;;;;;;;;;7303632;19;163031;-76
2021/08/26 12:20:30;;;;;;;;;;;;;;;;;;7302635;19;171550;-77
2021/08/26 12:22:57;;;;;;;;;;;;;;;;;;7302564;19;171471;-78
2021/08/26 12:25:41;;;;;;;;;;;;;;;;;;7305679;19;142332;-77
2021/08/26 12:28:09;;;;;;;;;;;;;;;;;;7305132;19;163320;-77
2021/08/26 12:30:43;;;;;;;;;;;;;;;;;;7304575;19;142076;-76
2021/08/26 12:33:17;;;;;;;;;;;;;;;;;;7305368;19;170473;-76
2021/08/26 12:35:44;;;;;;;;;;;;;;;;;;7305437;19;160477;-77
2021/08/26 12:38:12;;;;;;;;;;;;;;;;;;7305637;19;163457;-76
2021/08/26 12:40:47;;;;;;;;;;;;;;;;;;7302994;19;140971;-77
2021/08/26 12:46:37;;;;;;;;;;;;;;;;;;7307128;19;140683;-77
2021/08/26 12:51:53;;;;;;;;;;;;;;;;;;7304153;19;170461;-77
2021/08/26 12:54:20;;;;;;;;;;;;;;;;;;7304817;19;155166;-77
2021/08/26 12:56:57;;;;;;;;;;;;;;;;;;7304924;19;163157;-77
2021/08/26 12:59:37;;;;;;;;;;;;;;;;;;7305606;19;152302;-77
2021/08/26 13:02:06;;;;;;;;;;;;;;;;;;7304391;19;171614;-76
2021/08/26 13:04:34;;;;;;;;;;;;;;;;;;7306438;19;140612;-76
2021/08/26 13:07:28;;;;;;;;;;;;;;;;;;7304394;19;164860;-77
2021/08/26 13:10:01;;;;;;;;;;;;;;;;;;7303121;19;163234;-77
2021/08/26 13:12:29;;;;;;;;;;;;;;;;;;7300929;19;169831;-76
2021/08/26 13:17:29;;;;;;;;;;;;;;;;;;7304478;19;163061;-77
2021/08/26 13:20:02;;;;;;;;;;;;;;;;;;7304677;19;140645;31
2021/08/26 13:22:34;;;;;;;;;;;;;;;;;;7305000;19;140675;-77
2021/08/26 13:27:55;;;;;;;;;;;;;;;;;;7302717;19;164606;-77
2021/08/26 13:30:26;;;;;;;;;;;;;;;;;;7301725;19;162104;-77
2021/08/26 13:33:03;;;;;;;;;;;;;;;;;;;;;
2021/08/26 13:35:36;;;;;;;;;;;;;;;;;;7302603;19;171945;-77
2021/08/26 13:38:03;;;;;;;;;;;;;;;;;;7304473;19;149668;-77
2021/08/26 13:40:30;;;;;;;;;;;;;;;;;;7302885;19;152132;-77
2021/08/26 13:42:57;;;;;;;;;;;;;;;;;;7301152;19;170812;-77
2021/08/26 13:45:24;;;;;;;;;;;;;;;;;;7301381;19;170336;-76
2021/08/26 13:47:51;;;;;;;;;;;;;;;;;;7303385;19;161616;-76
2021/08/26 13:50:44;;;;;;;;;;;;;;;;;;7303678;19;140556;-76
2021/08/26 13:56:04;;;;;;;;;;;;;;;;;;7306330;19;140557;-76
2021/08/26 13:58:32;;;;;;;;;;;;;;;;;;7302322;19;151932;-76
2021/08/26 14:01:05;;;;;;;;;;;;;;;;;;7301595;19;163481;-76
2021/08/26 14:03:33;;;;;;;;;;;;;;;;;;7301526;19;170326;-76
2021/08/26 14:06:00;;;;;;;;;;;;;;;;;;7303414;19;140513;-76
2021/08/26 14:08:43;;;;;;;;;;;;;;;;;;7303404;19;164409;-76
2021/08/26 14:11:16;;;;;;;;;;;;;;;;;;7300860;19;163611;-76
2021/08/26 14:13:43;;;;;;;;;;;;;;;;;;7301174;19;159888;-76
2021/08/26 14:16:13;;;;;;;;;;;;;;;;;;7298487;19;170393;-76
2021/08/26 14:18:44;;;;;;;;;;;;;;;;;;7303056;19;150557;-76
2021/08/26 14:21:17;;;;;;;;;;;;;;;;;;7303559;19;140364;-76
2021/08/26 14:24:00;;;;;;;;;;;;;;;;;;7305205;19;170951;-76
2021/08/26 14:26:27;;;;;;;;;;;;;;;;;;7308708;19;172330;-77
2021/08/26 14:28:54;;;;;;;;;;;;;;;;;;7307588;19;153114;-76
2021/08/26 14:31:24;;;;;;;;;;;;;;;;;;7308691;19;163156;-76
2021/08/26 14:33:51;;;;;;;;;;;;;;;;;;7307815;19;170096;-76
2021/08/26 14:36:18;;;;;;;;;;;;;;;;;;7305115;19;171652;-76
2021/08/26 14:38:54;;;;;;;;;;;;;;;;;;7308822;19;140929;-76
2021/08/26 14:41:21;;;;;;;;;;;;;;;;;;7307120;19;163502;-76
2021/08/26 14:43:58;;;;;;;;;;;;;;;;;;7306842;19;170843;-77
2021/08/26 14:46:25;;;;;;;;;;;;;;;;;;7306308;19;170443;-76
2021/08/26 14:48:54;;;;;;;;;;;;;;;;;;7308626;19;140829;-77
2021/08/26 14:51:21;;;;;;;;;;;;;;;;;;7308929;19;162126;-76
2021/08/26 14:53:48;;;;;;;;;;;;;;;;;;7308592;19;159724;-77
2021/08/26 14:56:16;;;;;;;;;;;;;;;;;;7307421;19;171291;-76
2021/08/26 14:58:42;;;;;;;;;;;;;;;;;;7308760;19;162256;-76
2021/08/26 15:03:54;;;;;;;;;;;;;;;;;;7311517;19;140410;-76
2021/08/26 15:06:24;;;;;;;;;;;;;;;;;;7310444;19;171512;-76
2021/08/26 15:08:51;;;;;;;;;;;;;;;;;;7305094;19;164671;-76
2021/08/26 15:11:27;;;;;;;;;;;;;;;;;;7311889;19;140345;-76
2021/08/26 15:14:03;;;;;;;;;;;;;;;;;;7305960;19;158564;-76
2021/08/26 15:16:40;;;;;;;;;;;;;;;;;;7305573;19;171608;-77
2021/08/26 15:19:07;;;;;;;;;;;;;;;;;;7306605;19;151687;-76
2021/08/26 15:21:42;;;;;;;;;;;;;;;;;;7306275;19;163176;-77
2021/08/26 15:24:16;;;;;;;;;;;;;;;;;;7306306;19;170111;-77
2021/08/26 15:26:43;;;;;;;;;;;;;;;;;;7307193;19;164259;-77
2021/08/26 15:29:16;;;;;;;;;;;;;;;;;;7306400;19;163032;-77
2021/08/26 15:31:51;;;;;;;;;;;;;;;;;;7306305;19;162803;-77
2021/08/26 15:34:17;;;;;;;;;;;;;;;;;;7307061;19;158232;-77
2021/08/26 15:37:00;;;;;;;;;;;;;;;;;;7308623;19;140887;-77
2021/08/26 15:39:26;;;;;;;;;;;;;;;;;;7307287;19;164081;-77
2021/08/26 15:41:59;;;;;;;;;;;;;;;;;;7305641;19;163071;-77
2021/08/26 15:44:26;;;;;;;;;;;;;;;;;;7307179;19;168809;-77
2021/08/26 15:47:02;;;;;;;;;;;;;;;;;;7305710;19;171466;-77
2021/08/26 15:52:18;;;;;;;;;;;;;;;;;;7305109;19;161059;-77
2021/08/26 15:55:40;;;;;;;;;;;;;;;;;;7305592;19;154290;-77
2021/08/26 16:00:55;;;;;;;;;;;;;;;;;;7303732;19;163035;-77
2021/08/26 16:03:32;;;;;;;;;;;;;;;;;;7307134;19;163519;-77
2021/08/26 16:05:59;;;;;;;;;;;;;;;;;;7307733;19;155545;-77
2021/08/26 16:08:41;;;;;;;;;;;;;;;;;;7307386;19;168541;-77
2021/08/26 16:11:09;;;;;;;;;;;;;;;;;;7310592;19;162120;-77
2021/08/26 16:13:36;;;;;;;;;;;;;;;;;;7317812;19;140880;-77
2021/08/26 16:16:03;;;;;;;;;;;;;;;;;;7307678;19;170829;-76
2021/08/26 16:18:39;;;;;;;;;;;;;;;;;;7305034;19;171627;-77
2021/08/26 16:21:06;;;;;;;;;;;;;;;;;;7307157;19;164208;-77
2021/08/26 16:23:33;;;;;;;;;;;;;;;;;;7304137;19;162215;-77
2021/08/26 16:26:00;;;;;;;;;;;;;;;;;;7307036;19;142008;-77
2021/08/26 16:28:30;;;;;;;;;;;;;;;;;;7302482;19;141047;-77
2021/08/26 16:31:06;;;;;;;;;;;;;;;;;;7304520;19;163863;-77
2021/08/26 16:33:36;;;;;;;;;;;;;;;;;;7304729;19;162436;-76
2021/08/26 16:36:16;;;;;;;;;;;;;;;;;;7304127;19;158962;-77
2021/08/26 16:38:43;;;;;;;;;;;;;;;;;;7302868;19;171233;-77
2021/08/26 16:41:12;;;;;;;;;;;;;;;;;;7304580;19;163460;-77
2021/08/26 16:43:39;;;;;;;;;;;;;;;;;;7306014;19;143684;-76
2021/08/26 16:46:13;;;;;;;;;;;;;;;;;;7300453;19;170801;-77
2021/08/26 16:48:50;;;;;;;;;;;;;;;;;;7303847;19;171337;-76
2021/08/26 16:51:17;;;;;;;;;;;;;;;;;;7306245;19;140743;-77
2021/08/26 16:53:55;;;;;;;;;;;;;;;;;;7303806;19;163653;-76
2021/08/26 16:56:25;;;;;;;;;;;;;;;;;;7301914;19;169840;-76
2021/08/26 16:58:57;;;;;;;;;;;;;;;;;;7303537;19;171610;-77
2021/08/26 17:01:30;;;;;;;;;;;;;;;;;;7306083;19;140579;-76
2021/08/26 17:03:57;;;;;;;;;;;;;;;;;;7302107;19;162713;-77
2021/08/26 17:06:41;;;;;;;;;;;;;;;;;;7305515;19;140579;-77
2021/08/26 17:09:08;;;;;;;;;;;;;;;;;;7303737;19;163813;-77
2021/08/26 17:11:38;;;;;;;;;;;;;;;;;;7302545;19;163176;-76
2021/08/26 17:14:05;;;;;;;;;;;;;;;;;;7302690;19;164114;-77
2021/08/26 17:16:38;;;;;;;;;;;;;;;;;;7304230;19;171158;-77
2021/08/26 17:19:05;;;;;;;;;;;;;;;;;;7304059;19;141171;-77
2021/08/26 17:21:32;;;;;;;;;;;;;;;;;;7302860;19;151917;-77
2021/08/26 17:23:59;;;;;;;;;;;;;;;;;;7304851;19;163050;-77
2021/08/26 17:26:36;;;;;;;;;;;;;;;;;;7301877;19;171869;-76
2021/08/26 17:29:06;;;;;;;;;;;;;;;;;;7302173;19;171222;-77
2021/08/26 17:31:35;;;;;;;;;;;;;;;;;;7301781;19;163761;-77
2021/08/26 17:34:02;;;;;;;;;;;;;;;;;;7302448;19;163461;-76
2021/08/26 17:36:29;;;;;;;;;;;;;;;;;;7303698;19;170879;-77
2021/08/26 17:38:56;;;;;;;;;;;;;;;;;;7304293;19;154724;-77
2021/08/26 17:41:23;;;;;;;;;;;;;;;;;;7301505;19;163561;-76
2021/08/26 17:43:53;;;;;;;;;;;;;;;;;;7304011;19;163474;-76
2021/08/26 17:46:19;;;;;;;;;;;;;;;;;;7301915;19;171178;-77
2021/08/26 17:49:05;;;;;;;;;;;;;;;;;;7301303;19;170462;-76
2021/08/26 17:51:32;;;;;;;;;;;;;;;;;;7303328;19;165329;-77
2021/08/26 17:54:00;;;;;;;;;;;;;;;;;;7304628;19;140415;-77
2021/08/26 17:56:26;;;;;;;;;;;;;;;;;;7302788;19;169782;-77
2021/08/26 17:58:53;;;;;;;;;;;;;;;;;;7309910;19;171744;-77
2021/08/26 18:01:20;;;;;;;;;;;;;;;;;;7310474;19;163495;-77
2021/08/26 18:03:48;;;;;;;;;;;;;;;;;;7309965;19;163709;-77
2021/08/26 18:06:15;;;;;;;;;;;;;;;;;;7311889;19;140818;-77
2021/08/26 18:08:42;;;;;;;;;;;;;;;;;;7309523;19;171905;-77
2021/08/26 18:11:09;;;;;;;;;;;;;;;;;;7310294;19;149858;-77
2021/08/26 18:13:36;;;;;;;;;;;;;;;;;;7310074;19;162667;-76
2021/08/26 18:16:05;;;;;;;;;;;;;;;;;;7310287;19;171496;-77
2021/08/26 18:18:32;;;;;;;;;;;;;;;;;;7309312;19;172206;-77
2021/08/26 18:20:59;;;;;;;;;;;;;;;;;;7310459;19;163969;-76
2021/08/26 18:23:26;;;;;;;;;;;;;;;;;;7310255;19;163553;-77
2021/08/26 18:25:53;;;;;;;;;;;;;;;;;;7308738;19;169893;-77
2021/08/26 18:28:20;;;;;;;;;;;;;;;;;;7309922;19;172176;-77
2021/08/26 18:30:47;;;;;;;;;;;;;;;;;;7308909;19;162178;-77
2021/08/26 18:33:15;;;;;;;;;;;;;;;;;;7309327;19;162356;-77
2021/08/26 18:35:42;;;;;;;;;;;;;;;;;;7309673;19;171510;-77
2021/08/26 18:38:09;;;;;;;;;;;;;;;;;;7308662;19;170380;-77
2021/08/26 18:40:36;;;;;;;;;;;;;;;;;;7308826;19;164757;-77
2021/08/26 18:43:03;;;;;;;;;;;;;;;;;;7308433;19;162319;-76
2021/08/26 18:45:30;;;;;;;;;;;;;;;;;;7309127;19;156061;-77
2021/08/26 18:47:57;;;;;;;;;;;;;;;;;;7308447;19;169606;-77
2021/08/26 18:50:24;;;;;;;;;;;;;;;;;;7309052;19;164588;-77
2021/08/26 18:52:51;;;;;;;;;;;;;;;;;;7309789;19;148616;-77
2021/08/26 18:55:18;;;;;;;;;;;;;;;;;;7308677;19;170867;-77
2021/08/26 18:57:44;;;;;;;;;;;;;;;;;;7308280;19;172162;-77
2021/08/26 19:00:12;;;;;;;;;;;;;;;;;;7308179;19;163218;-77